sensor_id;sensor_type;location;lat;lon;timestamp;P1;durP1;ratioP1;P2;durP2;ratioP2
69203;SDS011;56317;27.658;85.326;2022-12-16T00:00:03;175.90;;;91.63;;
69203;SDS011;56317;27.658;85.326;2022-12-16T00:02:35;166.07;;;90.78;;
69203;SDS011;56317;27.658;85.326;2022-12-16T00:05:03;187.55;;;93.72;;
69203;SDS011;56317;27.658;85.326;2022-12-16T00:07:30;182.75;;;96.75;;
69203;SDS011;56317;27.658;85.326;2022-12-16T00:09:57;193.68;;;96.78;;
69203;SDS011;56317;27.658;85.326;2022-12-16T00:12:25;204.75;;;98.43;;
69203;SDS011;56317;27.658;85.326;2022-12-16T00:14:52;187.88;;;96.97;;
69203;SDS011;56317;27.658;85.326;2022-12-16T00:17:20;191.73;;;98.93;;
69203;SDS011;56317;27.658;85.326;2022-12-16T00:19:47;181.20;;;93.80;;
69203;SDS011;56317;27.658;85.326;2022-12-16T00:22:14;190.35;;;98.97;;
69203;SDS011;56317;27.658;85.326;2022-12-16T00:24:42;185.43;;;95.93;;
69203;SDS011;56317;27.658;85.326;2022-12-16T00:27:09;188.43;;;97.75;;
69203;SDS011;56317;27.658;85.326;2022-12-16T00:29:36;193.63;;;100.70;;
69203;SDS011;56317;27.658;85.326;2022-12-16T00:32:04;194.32;;;100.90;;
69203;SDS011;56317;27.658;85.326;2022-12-16T00:34:31;193.82;;;96.38;;
69203;SDS011;56317;27.658;85.326;2022-12-16T00:36:58;192.63;;;98.75;;
69203;SDS011;56317;27.658;85.326;2022-12-16T00:39:25;195.60;;;99.15;;
69203;SDS011;56317;27.658;85.326;2022-12-16T00:41:53;168.07;;;89.78;;
69203;SDS011;56317;27.658;85.326;2022-12-16T00:44:20;172.85;;;92.63;;
69203;SDS011;56317;27.658;85.326;2022-12-16T00:46:47;165.18;;;90.15;;
69203;SDS011;56317;27.658;85.326;2022-12-16T00:49:14;162.05;;;84.82;;
69203;SDS011;56317;27.658;85.326;2022-12-16T00:51:41;178.02;;;89.43;;
69203;SDS011;56317;27.658;85.326;2022-12-16T00:54:09;170.73;;;87.45;;
69203;SDS011;56317;27.658;85.326;2022-12-16T00:56:36;163.75;;;86.47;;
69203;SDS011;56317;27.658;85.326;2022-12-16T00:59:04;175.50;;;87.60;;
69203;SDS011;56317;27.658;85.326;2022-12-16T01:01:34;164.48;;;85.03;;
69203;SDS011;56317;27.658;85.326;2022-12-16T01:04:01;177.25;;;89.78;;
69203;SDS011;56317;27.658;85.326;2022-12-16T01:06:28;184.85;;;91.32;;
69203;SDS011;56317;27.658;85.326;2022-12-16T01:08:56;166.65;;;86.07;;
69203;SDS011;56317;27.658;85.326;2022-12-16T01:11:23;178.27;;;90.65;;
69203;SDS011;56317;27.658;85.326;2022-12-16T01:13:50;185.00;;;93.72;;
69203;SDS011;56317;27.658;85.326;2022-12-16T01:16:18;174.80;;;86.00;;
69203;SDS011;56317;27.658;85.326;2022-12-16T01:18:45;175.45;;;89.10;;
69203;SDS011;56317;27.658;85.326;2022-12-16T01:21:13;186.15;;;92.25;;
69203;SDS011;56317;27.658;85.326;2022-12-16T01:23:41;179.90;;;88.88;;
69203;SDS011;56317;27.658;85.326;2022-12-16T01:26:08;167.35;;;90.90;;
69203;SDS011;56317;27.658;85.326;2022-12-16T01:28:41;169.70;;;87.55;;
69203;SDS011;56317;27.658;85.326;2022-12-16T01:31:09;178.48;;;89.90;;
69203;SDS011;56317;27.658;85.326;2022-12-16T01:33:37;202.55;;;104.90;;
69203;SDS011;56317;27.658;85.326;2022-12-16T01:36:05;191.52;;;98.78;;
69203;SDS011;56317;27.658;85.326;2022-12-16T01:38:33;229.35;;;107.90;;
69203;SDS011;56317;27.658;85.326;2022-12-16T01:41:02;234.95;;;113.97;;
69203;SDS011;56317;27.658;85.326;2022-12-16T01:43:31;223.07;;;108.32;;
69203;SDS011;56317;27.658;85.326;2022-12-16T01:46:06;197.93;;;100.65;;
69203;SDS011;56317;27.658;85.326;2022-12-16T01:48:43;187.02;;;100.20;;
69203;SDS011;56317;27.658;85.326;2022-12-16T01:51:33;213.13;;;103.75;;
69203;SDS011;56317;27.658;85.326;2022-12-16T01:54:07;152.67;;;80.23;;
69203;SDS011;56317;27.658;85.326;2022-12-16T01:56:39;204.35;;;106.13;;
69203;SDS011;56317;27.658;85.326;2022-12-16T01:59:09;208.10;;;106.63;;
69203;SDS011;56317;27.658;85.326;2022-12-16T02:01:39;220.05;;;107.43;;
69203;SDS011;56317;27.658;85.326;2022-12-16T02:04:06;197.85;;;107.43;;
69203;SDS011;56317;27.658;85.326;2022-12-16T02:06:34;231.15;;;116.85;;
69203;SDS011;56317;27.658;85.326;2022-12-16T02:09:04;212.02;;;113.07;;
69203;SDS011;56317;27.658;85.326;2022-12-16T02:17:14;241.32;;;121.78;;
69203;SDS011;56317;27.658;85.326;2022-12-16T02:42:44;201.68;;;109.53;;
69203;SDS011;56317;27.658;85.326;2022-12-16T02:45:16;192.43;;;109.60;;
69203;SDS011;56317;27.658;85.326;2022-12-16T02:47:47;199.93;;;111.30;;
69203;SDS011;56317;27.658;85.326;2022-12-16T02:50:57;191.48;;;110.32;;
69203;SDS011;56317;27.658;85.326;2022-12-16T02:53:07;198.55;;;113.38;;
69203;SDS011;56317;27.658;85.326;2022-12-16T02:58:47;189.45;;;108.15;;
69203;SDS011;56317;27.658;85.326;2022-12-16T03:04:11;169.98;;;99.40;;
69203;SDS011;56317;27.658;85.326;2022-12-16T03:06:47;168.57;;;98.38;;
69203;SDS011;56317;27.658;85.326;2022-12-16T03:09:17;164.55;;;99.68;;
69203;SDS011;56317;27.658;85.326;2022-12-16T03:11:51;167.65;;;99.50;;
69203;SDS011;56317;27.658;85.326;2022-12-16T03:14:20;170.27;;;97.72;;
69203;SDS011;56317;27.658;85.326;2022-12-16T03:16:55;161.85;;;94.63;;
69203;SDS011;56317;27.658;85.326;2022-12-16T03:19:23;164.95;;;97.68;;
69203;SDS011;56317;27.658;85.326;2022-12-16T03:22:02;155.63;;;95.05;;
69203;SDS011;56317;27.658;85.326;2022-12-16T03:24:41;175.75;;;98.47;;
69203;SDS011;56317;27.658;85.326;2022-12-16T03:32:27;143.85;;;91.28;;
69203;SDS011;56317;27.658;85.326;2022-12-16T03:35:00;134.68;;;83.93;;
69203;SDS011;56317;27.658;85.326;2022-12-16T03:37:35;139.05;;;84.03;;
69203;SDS011;56317;27.658;85.326;2022-12-16T03:40:04;128.05;;;83.55;;
69203;SDS011;56317;27.658;85.326;2022-12-16T03:42:34;131.10;;;85.57;;
69203;SDS011;56317;27.658;85.326;2022-12-16T03:45:03;143.93;;;89.53;;
69203;SDS011;56317;27.658;85.326;2022-12-16T03:47:33;149.35;;;92.38;;
69203;SDS011;56317;27.658;85.326;2022-12-16T03:50:00;142.65;;;92.40;;
69203;SDS011;56317;27.658;85.326;2022-12-16T03:52:27;150.80;;;92.00;;
69203;SDS011;56317;27.658;85.326;2022-12-16T03:54:55;148.73;;;91.38;;
69203;SDS011;56317;27.658;85.326;2022-12-16T03:57:22;136.10;;;88.25;;
69203;SDS011;56317;27.658;85.326;2022-12-16T03:59:49;136.88;;;88.72;;
69203;SDS011;56317;27.658;85.326;2022-12-16T04:02:16;145.68;;;89.97;;
69203;SDS011;56317;27.658;85.326;2022-12-16T04:04:44;150.52;;;93.43;;
69203;SDS011;56317;27.658;85.326;2022-12-16T04:07:14;140.60;;;93.57;;
69203;SDS011;56317;27.658;85.326;2022-12-16T04:09:50;154.68;;;90.18;;
69203;SDS011;56317;27.658;85.326;2022-12-16T04:12:18;157.02;;;94.55;;
69203;SDS011;56317;27.658;85.326;2022-12-16T04:15:04;148.32;;;95.72;;
69203;SDS011;56317;27.658;85.326;2022-12-16T04:17:53;144.70;;;92.28;;
69203;SDS011;56317;27.658;85.326;2022-12-16T04:20:41;134.57;;;89.65;;
69203;SDS011;56317;27.658;85.326;2022-12-16T04:23:32;146.07;;;91.03;;
69203;SDS011;56317;27.658;85.326;2022-12-16T04:26:20;137.57;;;85.50;;
69203;SDS011;56317;27.658;85.326;2022-12-16T04:28:47;122.60;;;84.53;;
69203;SDS011;56317;27.658;85.326;2022-12-16T04:31:15;128.63;;;81.45;;
69203;SDS011;56317;27.658;85.326;2022-12-16T04:33:42;125.43;;;79.35;;
69203;SDS011;56317;27.658;85.326;2022-12-16T04:36:30;119.45;;;78.20;;
69203;SDS011;56317;27.658;85.326;2022-12-16T04:39:15;124.50;;;83.63;;
69203;SDS011;56317;27.658;85.326;2022-12-16T04:42:01;113.65;;;77.38;;
69203;SDS011;56317;27.658;85.326;2022-12-16T04:44:46;111.25;;;75.55;;
69203;SDS011;56317;27.658;85.326;2022-12-16T04:47:31;111.70;;;75.78;;
69203;SDS011;56317;27.658;85.326;2022-12-16T04:50:16;117.47;;;74.47;;
69203;SDS011;56317;27.658;85.326;2022-12-16T04:53:04;103.25;;;70.07;;
69203;SDS011;56317;27.658;85.326;2022-12-16T04:55:49;105.72;;;73.05;;
69203;SDS011;56317;27.658;85.326;2022-12-16T04:58:34;104.30;;;70.20;;
69203;SDS011;56317;27.658;85.326;2022-12-16T05:01:20;94.47;;;68.15;;
69203;SDS011;56317;27.658;85.326;2022-12-16T05:04:05;99.68;;;67.97;;
69203;SDS011;56317;27.658;85.326;2022-12-16T05:06:50;97.78;;;69.32;;
69203;SDS011;56317;27.658;85.326;2022-12-16T05:09:49;86.43;;;59.63;;
69203;SDS011;56317;27.658;85.326;2022-12-16T05:12:34;107.88;;;74.53;;
69203;SDS011;56317;27.658;85.326;2022-12-16T05:15:20;101.55;;;67.82;;
69203;SDS011;56317;27.658;85.326;2022-12-16T05:18:09;92.07;;;65.50;;
69203;SDS011;56317;27.658;85.326;2022-12-16T05:20:58;90.35;;;66.68;;
69203;SDS011;56317;27.658;85.326;2022-12-16T05:23:45;99.80;;;68.63;;
69203;SDS011;56317;27.658;85.326;2022-12-16T05:26:31;92.80;;;65.30;;
69203;SDS011;56317;27.658;85.326;2022-12-16T05:29:17;107.25;;;66.55;;
69203;SDS011;56317;27.658;85.326;2022-12-16T05:32:02;96.90;;;67.32;;
69203;SDS011;56317;27.658;85.326;2022-12-16T05:34:48;92.38;;;64.80;;
69203;SDS011;56317;27.658;85.326;2022-12-16T05:37:33;98.00;;;67.55;;
69203;SDS011;56317;27.658;85.326;2022-12-16T05:40:18;98.43;;;66.18;;
69203;SDS011;56317;27.658;85.326;2022-12-16T05:43:03;79.20;;;56.28;;
69203;SDS011;56317;27.658;85.326;2022-12-16T05:45:49;84.65;;;55.90;;
69203;SDS011;56317;27.658;85.326;2022-12-16T05:48:34;75.03;;;50.83;;
69203;SDS011;56317;27.658;85.326;2022-12-16T05:51:20;88.38;;;57.72;;
69203;SDS011;56317;27.658;85.326;2022-12-16T05:54:05;83.40;;;55.97;;
69203;SDS011;56317;27.658;85.326;2022-12-16T05:56:50;85.57;;;59.53;;
69203;SDS011;56317;27.658;85.326;2022-12-16T05:59:36;87.25;;;63.03;;
69203;SDS011;56317;27.658;85.326;2022-12-16T06:02:21;82.97;;;57.70;;
69203;SDS011;56317;27.658;85.326;2022-12-16T06:05:07;79.68;;;53.70;;
69203;SDS011;56317;27.658;85.326;2022-12-16T06:07:52;76.80;;;52.10;;
69203;SDS011;56317;27.658;85.326;2022-12-16T06:10:38;77.50;;;52.55;;
69203;SDS011;56317;27.658;85.326;2022-12-16T06:13:23;70.65;;;51.60;;
69203;SDS011;56317;27.658;85.326;2022-12-16T06:16:09;70.85;;;51.30;;
69203;SDS011;56317;27.658;85.326;2022-12-16T06:18:54;67.30;;;51.00;;
69203;SDS011;56317;27.658;85.326;2022-12-16T06:21:39;62.30;;;47.10;;
69203;SDS011;56317;27.658;85.326;2022-12-16T06:24:29;69.40;;;49.00;;
69203;SDS011;56317;27.658;85.326;2022-12-16T06:27:15;70.05;;;48.80;;
69203;SDS011;56317;27.658;85.326;2022-12-16T06:30:00;66.10;;;48.78;;
69203;SDS011;56317;27.658;85.326;2022-12-16T06:32:45;62.55;;;46.25;;
69203;SDS011;56317;27.658;85.326;2022-12-16T06:35:31;62.53;;;45.40;;
69203;SDS011;56317;27.658;85.326;2022-12-16T06:38:16;63.42;;;45.00;;
69203;SDS011;56317;27.658;85.326;2022-12-16T06:41:01;60.75;;;46.13;;
69203;SDS011;56317;27.658;85.326;2022-12-16T06:43:47;62.22;;;45.42;;
69203;SDS011;56317;27.658;85.326;2022-12-16T06:46:32;62.78;;;44.92;;
69203;SDS011;56317;27.658;85.326;2022-12-16T06:49:17;54.55;;;42.20;;
69203;SDS011;56317;27.658;85.326;2022-12-16T06:52:04;49.35;;;41.10;;
69203;SDS011;56317;27.658;85.326;2022-12-16T06:54:49;57.03;;;41.17;;
69203;SDS011;56317;27.658;85.326;2022-12-16T06:57:37;55.15;;;42.97;;
69203;SDS011;56317;27.658;85.326;2022-12-16T07:00:24;55.05;;;40.83;;
69203;SDS011;56317;27.658;85.326;2022-12-16T07:03:09;53.17;;;39.22;;
69203;SDS011;56317;27.658;85.326;2022-12-16T07:05:54;56.58;;;42.60;;
69203;SDS011;56317;27.658;85.326;2022-12-16T07:08:40;56.50;;;44.15;;
69203;SDS011;56317;27.658;85.326;2022-12-16T07:11:25;58.45;;;43.30;;
69203;SDS011;56317;27.658;85.326;2022-12-16T07:14:10;55.55;;;43.80;;
69203;SDS011;56317;27.658;85.326;2022-12-16T07:16:56;57.95;;;44.03;;
69203;SDS011;56317;27.658;85.326;2022-12-16T07:19:42;59.88;;;44.97;;
69203;SDS011;56317;27.658;85.326;2022-12-16T07:22:27;64.82;;;46.03;;
69203;SDS011;56317;27.658;85.326;2022-12-16T07:25:12;58.70;;;43.97;;
69203;SDS011;56317;27.658;85.326;2022-12-16T07:27:58;50.05;;;42.33;;
69203;SDS011;56317;27.658;85.326;2022-12-16T07:30:43;61.50;;;42.85;;
69203;SDS011;56317;27.658;85.326;2022-12-16T07:33:36;56.17;;;41.55;;
69203;SDS011;56317;27.658;85.326;2022-12-16T07:36:22;50.65;;;39.53;;
69203;SDS011;56317;27.658;85.326;2022-12-16T07:39:07;55.97;;;41.03;;
69203;SDS011;56317;27.658;85.326;2022-12-16T07:41:53;60.50;;;45.55;;
69203;SDS011;56317;27.658;85.326;2022-12-16T07:44:38;57.42;;;46.20;;
69203;SDS011;56317;27.658;85.326;2022-12-16T07:47:23;59.47;;;46.03;;
69203;SDS011;56317;27.658;85.326;2022-12-16T07:50:09;66.55;;;46.17;;
69203;SDS011;56317;27.658;85.326;2022-12-16T07:52:55;58.80;;;43.92;;
69203;SDS011;56317;27.658;85.326;2022-12-16T07:55:44;57.40;;;43.22;;
69203;SDS011;56317;27.658;85.326;2022-12-16T07:58:29;57.63;;;43.45;;
69203;SDS011;56317;27.658;85.326;2022-12-16T08:01:14;55.03;;;45.10;;
69203;SDS011;56317;27.658;85.326;2022-12-16T08:04:00;59.33;;;43.53;;
69203;SDS011;56317;27.658;85.326;2022-12-16T08:06:45;66.22;;;44.53;;
69203;SDS011;56317;27.658;85.326;2022-12-16T08:09:30;61.08;;;43.60;;
69203;SDS011;56317;27.658;85.326;2022-12-16T08:12:15;58.40;;;43.40;;
69203;SDS011;56317;27.658;85.326;2022-12-16T08:15:01;54.05;;;43.05;;
69203;SDS011;56317;27.658;85.326;2022-12-16T08:17:50;64.70;;;42.28;;
69203;SDS011;56317;27.658;85.326;2022-12-16T08:20:36;61.42;;;41.38;;
69203;SDS011;56317;27.658;85.326;2022-12-16T08:23:21;56.53;;;41.05;;
69203;SDS011;56317;27.658;85.326;2022-12-16T08:26:07;57.10;;;37.28;;
69203;SDS011;56317;27.658;85.326;2022-12-16T08:28:52;48.25;;;37.40;;
69203;SDS011;56317;27.658;85.326;2022-12-16T08:31:38;54.90;;;36.03;;
69203;SDS011;56317;27.658;85.326;2022-12-16T08:34:23;52.72;;;34.90;;
69203;SDS011;56317;27.658;85.326;2022-12-16T08:37:08;49.38;;;35.17;;
69203;SDS011;56317;27.658;85.326;2022-12-16T08:39:54;53.05;;;38.38;;
69203;SDS011;56317;27.658;85.326;2022-12-16T08:42:39;49.22;;;35.83;;
69203;SDS011;56317;27.658;85.326;2022-12-16T08:45:25;46.72;;;36.15;;
69203;SDS011;56317;27.658;85.326;2022-12-16T08:48:10;52.22;;;36.70;;
69203;SDS011;56317;27.658;85.326;2022-12-16T08:50:55;57.15;;;37.80;;
69203;SDS011;56317;27.658;85.326;2022-12-16T08:53:46;56.75;;;37.55;;
69203;SDS011;56317;27.658;85.326;2022-12-16T08:56:31;51.17;;;36.45;;
69203;SDS011;56317;27.658;85.326;2022-12-16T08:59:17;54.58;;;35.50;;
69203;SDS011;56317;27.658;85.326;2022-12-16T09:02:03;63.88;;;39.25;;
69203;SDS011;56317;27.658;85.326;2022-12-16T09:04:48;51.88;;;37.08;;
69203;SDS011;56317;27.658;85.326;2022-12-16T09:07:34;47.88;;;36.67;;
69203;SDS011;56317;27.658;85.326;2022-12-16T09:10:19;58.13;;;38.05;;
69203;SDS011;56317;27.658;85.326;2022-12-16T09:13:12;46.97;;;37.67;;
69203;SDS011;56317;27.658;85.326;2022-12-16T09:16:00;59.78;;;38.25;;
69203;SDS011;56317;27.658;85.326;2022-12-16T09:18:45;52.67;;;38.00;;
69203;SDS011;56317;27.658;85.326;2022-12-16T09:21:35;58.50;;;43.22;;
69203;SDS011;56317;27.658;85.326;2022-12-16T09:24:20;62.30;;;41.85;;
69203;SDS011;56317;27.658;85.326;2022-12-16T09:27:06;60.03;;;43.42;;
69203;SDS011;56317;27.658;85.326;2022-12-16T09:29:51;68.22;;;43.97;;
69203;SDS011;56317;27.658;85.326;2022-12-16T09:32:40;57.30;;;42.70;;
69203;SDS011;56317;27.658;85.326;2022-12-16T09:35:26;66.60;;;44.22;;
69203;SDS011;56317;27.658;85.326;2022-12-16T09:38:11;63.53;;;44.78;;
69203;SDS011;56317;27.658;85.326;2022-12-16T09:40:57;64.05;;;44.00;;
69203;SDS011;56317;27.658;85.326;2022-12-16T09:44:04;65.05;;;43.60;;
69203;SDS011;56317;27.658;85.326;2022-12-16T09:50:30;69.00;;;46.00;;
69203;SDS011;56317;27.658;85.326;2022-12-16T09:53:17;71.10;;;47.63;;
69203;SDS011;56317;27.658;85.326;2022-12-16T09:56:06;72.10;;;46.20;;
69203;SDS011;56317;27.658;85.326;2022-12-16T09:59:04;81.07;;;50.80;;
69203;SDS011;56317;27.658;85.326;2022-12-16T10:02:02;77.55;;;51.05;;
69203;SDS011;56317;27.658;85.326;2022-12-16T10:04:59;98.47;;;59.80;;
69203;SDS011;56317;27.658;85.326;2022-12-16T10:07:47;87.85;;;56.58;;
69203;SDS011;56317;27.658;85.326;2022-12-16T10:11:05;91.32;;;55.38;;
69203;SDS011;56317;27.658;85.326;2022-12-16T10:17:07;99.55;;;57.17;;
69203;SDS011;56317;27.658;85.326;2022-12-16T10:20:00;107.78;;;58.78;;
69203;SDS011;56317;27.658;85.326;2022-12-16T10:23:09;91.65;;;58.15;;
69203;SDS011;56317;27.658;85.326;2022-12-16T10:26:22;78.00;;;44.95;;
69203;SDS011;56317;27.658;85.326;2022-12-16T10:29:26;83.63;;;48.95;;
69203;SDS011;56317;27.658;85.326;2022-12-16T10:32:25;96.32;;;59.25;;
69203;SDS011;56317;27.658;85.326;2022-12-16T10:35:30;102.07;;;64.43;;
69203;SDS011;56317;27.658;85.326;2022-12-16T10:41:33;118.30;;;68.22;;
69203;SDS011;56317;27.658;85.326;2022-12-16T10:47:34;126.55;;;68.47;;
69203;SDS011;56317;27.658;85.326;2022-12-16T10:50:19;122.85;;;70.75;;
69203;SDS011;56317;27.658;85.326;2022-12-16T10:56:06;126.65;;;70.43;;
69203;SDS011;56317;27.658;85.326;2022-12-16T10:59:17;114.32;;;69.93;;
69203;SDS011;56317;27.658;85.326;2022-12-16T11:02:04;140.55;;;73.28;;
69203;SDS011;56317;27.658;85.326;2022-12-16T11:04:59;123.20;;;70.53;;
69203;SDS011;56317;27.658;85.326;2022-12-16T11:13:27;103.13;;;53.88;;
69203;SDS011;56317;27.658;85.326;2022-12-16T11:19:26;128.85;;;72.57;;
69203;SDS011;56317;27.658;85.326;2022-12-16T11:22:14;139.90;;;77.80;;
69203;SDS011;56317;27.658;85.326;2022-12-16T11:25:05;146.45;;;84.47;;
69203;SDS011;56317;27.658;85.326;2022-12-16T11:28:02;139.35;;;79.90;;
69203;SDS011;56317;27.658;85.326;2022-12-16T11:30:51;178.10;;;94.80;;
69203;SDS011;56317;27.658;85.326;2022-12-16T11:33:39;112.25;;;64.70;;
69203;SDS011;56317;27.658;85.326;2022-12-16T11:36:26;127.30;;;73.00;;
69203;SDS011;56317;27.658;85.326;2022-12-16T11:39:19;144.43;;;83.40;;
69203;SDS011;56317;27.658;85.326;2022-12-16T11:42:09;153.57;;;78.97;;
69203;SDS011;56317;27.658;85.326;2022-12-16T11:45:02;137.68;;;77.97;;
69203;SDS011;56317;27.658;85.326;2022-12-16T11:47:53;145.25;;;77.05;;
69203;SDS011;56317;27.658;85.326;2022-12-16T11:50:47;136.35;;;78.05;;
69203;SDS011;56317;27.658;85.326;2022-12-16T11:53:39;143.32;;;76.88;;
69203;SDS011;56317;27.658;85.326;2022-12-16T11:56:35;141.23;;;79.55;;
69203;SDS011;56317;27.658;85.326;2022-12-16T11:59:32;132.38;;;78.55;;
69203;SDS011;56317;27.658;85.326;2022-12-16T12:05:14;136.32;;;79.43;;
69203;SDS011;56317;27.658;85.326;2022-12-16T12:14:00;145.07;;;80.45;;
69203;SDS011;56317;27.658;85.326;2022-12-16T12:16:59;157.23;;;85.22;;
69203;SDS011;56317;27.658;85.326;2022-12-16T12:23:06;150.57;;;86.80;;
69203;SDS011;56317;27.658;85.326;2022-12-16T12:31:38;148.77;;;90.68;;
69203;SDS011;56317;27.658;85.326;2022-12-16T12:34:55;164.63;;;97.20;;
69203;SDS011;56317;27.658;85.326;2022-12-16T12:38:01;155.65;;;93.55;;
69203;SDS011;56317;27.658;85.326;2022-12-16T12:47:04;173.75;;;98.97;;
69203;SDS011;56317;27.658;85.326;2022-12-16T12:49:56;173.55;;;98.53;;
69203;SDS011;56317;27.658;85.326;2022-12-16T12:53:04;159.98;;;95.70;;
69203;SDS011;56317;27.658;85.326;2022-12-16T12:58:49;149.32;;;87.93;;
69203;SDS011;56317;27.658;85.326;2022-12-16T13:01:39;152.20;;;89.10;;
69203;SDS011;56317;27.658;85.326;2022-12-16T13:04:26;159.35;;;88.97;;
69203;SDS011;56317;27.658;85.326;2022-12-16T13:07:13;157.60;;;86.32;;
69203;SDS011;56317;27.658;85.326;2022-12-16T13:10:17;157.60;;;90.13;;
69203;SDS011;56317;27.658;85.326;2022-12-16T13:13:19;155.07;;;89.32;;
69203;SDS011;56317;27.658;85.326;2022-12-16T13:16:58;159.98;;;89.03;;
69203;SDS011;56317;27.658;85.326;2022-12-16T13:19:43;161.95;;;88.38;;
69203;SDS011;56317;27.658;85.326;2022-12-16T13:22:36;178.90;;;91.15;;
69203;SDS011;56317;27.658;85.326;2022-12-16T13:28:40;144.13;;;82.40;;
69203;SDS011;56317;27.658;85.326;2022-12-16T13:31:58;139.30;;;78.43;;
69203;SDS011;56317;27.658;85.326;2022-12-16T13:37:58;147.50;;;83.55;;
69203;SDS011;56317;27.658;85.326;2022-12-16T13:44:11;151.18;;;83.47;;
69203;SDS011;56317;27.658;85.326;2022-12-16T13:50:40;157.32;;;88.10;;
69203;SDS011;56317;27.658;85.326;2022-12-16T13:53:27;166.55;;;93.38;;
69203;SDS011;56317;27.658;85.326;2022-12-16T13:56:40;171.48;;;92.38;;
69203;SDS011;56317;27.658;85.326;2022-12-16T13:59:31;195.77;;;108.53;;
69203;SDS011;56317;27.658;85.326;2022-12-16T14:05:18;177.32;;;100.20;;
69203;SDS011;56317;27.658;85.326;2022-12-16T14:08:14;191.70;;;101.68;;
69203;SDS011;56317;27.658;85.326;2022-12-16T14:11:03;193.70;;;102.80;;
69203;SDS011;56317;27.658;85.326;2022-12-16T14:26:28;193.30;;;107.07;;
69203;SDS011;56317;27.658;85.326;2022-12-16T14:29:21;204.02;;;110.28;;
69203;SDS011;56317;27.658;85.326;2022-12-16T14:32:19;199.05;;;106.68;;
69203;SDS011;56317;27.658;85.326;2022-12-16T14:35:13;203.75;;;107.88;;
69203;SDS011;56317;27.658;85.326;2022-12-16T14:41:22;201.00;;;112.70;;
69203;SDS011;56317;27.658;85.326;2022-12-16T14:44:21;198.88;;;109.03;;
69203;SDS011;56317;27.658;85.326;2022-12-16T14:47:14;211.02;;;111.70;;
69203;SDS011;56317;27.658;85.326;2022-12-16T14:50:26;187.10;;;103.32;;
69203;SDS011;56317;27.658;85.326;2022-12-16T14:53:18;198.93;;;108.13;;
69203;SDS011;56317;27.658;85.326;2022-12-16T14:56:09;189.95;;;102.60;;
69203;SDS011;56317;27.658;85.326;2022-12-16T14:59:15;171.93;;;97.57;;
69203;SDS011;56317;27.658;85.326;2022-12-16T15:02:24;183.27;;;97.78;;
69203;SDS011;56317;27.658;85.326;2022-12-16T15:05:17;158.30;;;87.32;;
69203;SDS011;56317;27.658;85.326;2022-12-16T15:08:03;159.65;;;89.70;;
69203;SDS011;56317;27.658;85.326;2022-12-16T15:10:49;155.52;;;86.90;;
69203;SDS011;56317;27.658;85.326;2022-12-16T15:13:34;149.32;;;84.53;;
69203;SDS011;56317;27.658;85.326;2022-12-16T15:16:25;167.63;;;86.80;;
69203;SDS011;56317;27.658;85.326;2022-12-16T15:19:16;179.20;;;92.90;;
69203;SDS011;56317;27.658;85.326;2022-12-16T15:22:04;182.35;;;93.63;;
69203;SDS011;56317;27.658;85.326;2022-12-16T15:24:54;180.10;;;89.03;;
69203;SDS011;56317;27.658;85.326;2022-12-16T15:27:39;170.43;;;84.10;;
69203;SDS011;56317;27.658;85.326;2022-12-16T15:30:39;165.75;;;85.38;;
69203;SDS011;56317;27.658;85.326;2022-12-16T15:33:37;161.73;;;84.35;;
69203;SDS011;56317;27.658;85.326;2022-12-16T15:36:23;158.32;;;85.85;;
69203;SDS011;56317;27.658;85.326;2022-12-16T15:39:21;127.65;;;64.85;;
69203;SDS011;56317;27.658;85.326;2022-12-16T15:42:26;161.75;;;89.40;;
69203;SDS011;56317;27.658;85.326;2022-12-16T15:45:26;159.38;;;81.60;;
69203;SDS011;56317;27.658;85.326;2022-12-16T15:51:51;117.18;;;62.65;;
69203;SDS011;56317;27.658;85.326;2022-12-16T15:54:50;157.95;;;79.55;;
69203;SDS011;56317;27.658;85.326;2022-12-16T15:57:37;152.75;;;78.82;;
69203;SDS011;56317;27.658;85.326;2022-12-16T16:00:24;154.98;;;78.82;;
69203;SDS011;56317;27.658;85.326;2022-12-16T16:06:02;156.27;;;82.47;;
69203;SDS011;56317;27.658;85.326;2022-12-16T16:08:50;152.52;;;82.38;;
69203;SDS011;56317;27.658;85.326;2022-12-16T16:11:35;165.65;;;82.20;;
69203;SDS011;56317;27.658;85.326;2022-12-16T16:14:20;165.10;;;80.97;;
69203;SDS011;56317;27.658;85.326;2022-12-16T16:17:12;161.85;;;80.78;;
69203;SDS011;56317;27.658;85.326;2022-12-16T16:20:05;163.48;;;84.25;;
69203;SDS011;56317;27.658;85.326;2022-12-16T16:22:56;127.00;;;63.57;;
69203;SDS011;56317;27.658;85.326;2022-12-16T16:25:42;170.27;;;89.30;;
69203;SDS011;56317;27.658;85.326;2022-12-16T16:28:29;188.85;;;94.47;;
69203;SDS011;56317;27.658;85.326;2022-12-16T16:31:14;183.30;;;94.07;;
69203;SDS011;56317;27.658;85.326;2022-12-16T16:34:00;185.20;;;91.05;;
69203;SDS011;56317;27.658;85.326;2022-12-16T16:36:52;185.23;;;93.15;;
69203;SDS011;56317;27.658;85.326;2022-12-16T16:39:38;194.82;;;96.80;;
69203;SDS011;56317;27.658;85.326;2022-12-16T16:42:24;182.68;;;99.25;;
69203;SDS011;56317;27.658;85.326;2022-12-16T16:45:09;182.43;;;98.50;;
69203;SDS011;56317;27.658;85.326;2022-12-16T16:48:01;194.88;;;101.18;;
69203;SDS011;56317;27.658;85.326;2022-12-16T16:50:56;196.68;;;97.35;;
69203;SDS011;56317;27.658;85.326;2022-12-16T16:53:42;208.48;;;100.20;;
69203;SDS011;56317;27.658;85.326;2022-12-16T16:56:30;204.27;;;101.88;;
69203;SDS011;56317;27.658;85.326;2022-12-16T16:59:23;206.50;;;99.53;;
69203;SDS011;56317;27.658;85.326;2022-12-16T17:02:21;195.68;;;99.53;;
69203;SDS011;56317;27.658;85.326;2022-12-16T17:05:10;190.43;;;99.57;;
69203;SDS011;56317;27.658;85.326;2022-12-16T17:07:56;200.20;;;107.78;;
69203;SDS011;56317;27.658;85.326;2022-12-16T17:10:41;229.65;;;107.68;;
69203;SDS011;56317;27.658;85.326;2022-12-16T17:13:27;236.60;;;108.07;;
69203;SDS011;56317;27.658;85.326;2022-12-16T17:16:12;250.45;;;107.80;;
69203;SDS011;56317;27.658;85.326;2022-12-16T17:18:58;235.30;;;105.35;;
69203;SDS011;56317;27.658;85.326;2022-12-16T17:21:43;232.43;;;106.00;;
69203;SDS011;56317;27.658;85.326;2022-12-16T17:24:29;221.20;;;103.43;;
69203;SDS011;56317;27.658;85.326;2022-12-16T17:27:15;200.48;;;100.40;;
69203;SDS011;56317;27.658;85.326;2022-12-16T17:30:02;211.75;;;101.43;;
69203;SDS011;56317;27.658;85.326;2022-12-16T17:32:55;213.45;;;102.25;;
69203;SDS011;56317;27.658;85.326;2022-12-16T17:35:40;212.00;;;100.25;;
69203;SDS011;56317;27.658;85.326;2022-12-16T17:38:25;198.75;;;99.97;;
69203;SDS011;56317;27.658;85.326;2022-12-16T17:41:10;204.13;;;107.68;;
69203;SDS011;56317;27.658;85.326;2022-12-16T17:43:55;198.98;;;97.97;;
69203;SDS011;56317;27.658;85.326;2022-12-16T17:46:40;161.98;;;89.13;;